sensor_id;sensor_type;location;lat;lon;timestamp;pressure;altitude;pressure_sealevel;temperature;humidity
10806;BME280;5455;53.224;6.000;2022-10-22T00:00:06;100834.41;;;12.57;100.00
10806;BME280;5455;53.224;6.000;2022-10-22T00:02:33;100835.09;;;12.50;100.00
10806;BME280;5455;53.224;6.000;2022-10-22T00:05:00;100841.69;;;12.42;100.00
10806;BME280;5455;53.224;6.000;2022-10-22T00:07:27;100838.44;;;12.37;100.00
10806;BME280;5455;53.224;6.000;2022-10-22T00:09:54;100842.25;;;12.29;100.00
10806;BME280;5455;53.224;6.000;2022-10-22T00:12:21;100842.88;;;12.19;100.00
10806;BME280;5455;53.224;6.000;2022-10-22T00:14:48;100842.09;;;12.18;100.00
10806;BME280;5455;53.224;6.000;2022-10-22T00:17:16;100841.22;;;12.14;100.00
10806;BME280;5455;53.224;6.000;2022-10-22T00:19:43;100840.72;;;12.08;100.00
10806;BME280;5455;53.224;6.000;2022-10-22T00:22:11;100844.97;;;12.02;100.00
10806;BME280;5455;53.224;6.000;2022-10-22T00:24:38;100839.44;;;12.02;100.00
10806;BME280;5455;53.224;6.000;2022-10-22T00:27:07;100842.94;;;11.99;100.00
10806;BME280;5455;53.224;6.000;2022-10-22T00:29:34;100848.47;;;11.99;100.00
10806;BME280;5455;53.224;6.000;2022-10-22T00:32:01;100848.84;;;11.98;100.00
10806;BME280;5455;53.224;6.000;2022-10-22T00:34:28;100843.34;;;11.98;100.00
10806;BME280;5455;53.224;6.000;2022-10-22T00:36:55;100839.84;;;12.01;100.00
10806;BME280;5455;53.224;6.000;2022-10-22T00:39:23;100848.19;;;12.04;100.00
10806;BME280;5455;53.224;6.000;2022-10-22T00:41:52;100849.03;;;12.08;100.00
10806;BME280;5455;53.224;6.000;2022-10-22T00:47:26;100847.66;;;11.99;100.00
10806;BME280;5455;53.224;6.000;2022-10-22T00:49:54;100850.41;;;11.95;100.00
10806;BME280;5455;53.224;6.000;2022-10-22T00:52:22;100851.97;;;11.96;100.00
10806;BME280;5455;53.224;6.000;2022-10-22T00:54:49;100846.09;;;11.98;100.00
10806;BME280;5455;53.224;6.000;2022-10-22T00:57:18;100853.16;;;11.95;100.00
10806;BME280;5455;53.224;6.000;2022-10-22T00:59:47;100848.78;;;11.94;100.00
10806;BME280;5455;53.224;6.000;2022-10-22T01:02:15;100855.97;;;11.99;100.00
10806;BME280;5455;53.224;6.000;2022-10-22T01:04:42;100860.75;;;12.02;100.00
10806;BME280;5455;53.224;6.000;2022-10-22T01:07:16;100862.44;;;12.06;100.00
10806;BME280;5455;53.224;6.000;2022-10-22T01:10:23;100862.50;;;12.10;100.00
10806;BME280;5455;53.224;6.000;2022-10-22T01:13:05;100866.78;;;12.07;100.00
10806;BME280;5455;53.224;6.000;2022-10-22T01:15:47;100869.91;;;12.06;100.00
10806;BME280;5455;53.224;6.000;2022-10-22T01:18:44;100859.72;;;12.10;100.00
10806;BME280;5455;53.224;6.000;2022-10-22T01:21:25;100863.72;;;12.12;100.00
10806;BME280;5455;53.224;6.000;2022-10-22T01:30:07;100866.09;;;12.14;100.00
10806;BME280;5455;53.224;6.000;2022-10-22T01:32:45;100863.72;;;12.12;100.00
10806;BME280;5455;53.224;6.000;2022-10-22T01:35:18;100864.53;;;12.13;100.00
10806;BME280;5455;53.224;6.000;2022-10-22T01:37:53;100864.13;;;12.14;100.00
10806;BME280;5455;53.224;6.000;2022-10-22T01:40:22;100867.69;;;12.15;100.00
10806;BME280;5455;53.224;6.000;2022-10-22T01:42:57;100861.81;;;12.17;100.00
10806;BME280;5455;53.224;6.000;2022-10-22T01:45:25;100861.13;;;12.23;100.00
10806;BME280;5455;53.224;6.000;2022-10-22T01:48:00;100860.69;;;12.21;100.00
10806;BME280;5455;53.224;6.000;2022-10-22T02:01:48;100856.19;;;12.36;100.00
10806;BME280;5455;53.224;6.000;2022-10-22T02:04:30;100859.88;;;12.43;100.00
10806;BME280;5455;53.224;6.000;2022-10-22T02:07:04;100848.09;;;12.46;100.00
10806;BME280;5455;53.224;6.000;2022-10-22T02:09:32;100839.03;;;12.49;100.00
10806;BME280;5455;53.224;6.000;2022-10-22T02:12:03;100837.09;;;12.53;100.00
10806;BME280;5455;53.224;6.000;2022-10-22T02:14:38;100845.03;;;12.55;100.00
10806;BME280;5455;53.224;6.000;2022-10-22T02:17:12;100845.03;;;12.55;100.00
10806;BME280;5455;53.224;6.000;2022-10-22T02:19:53;100852.91;;;12.53;100.00
10806;BME280;5455;53.224;6.000;2022-10-22T02:22:23;100850.94;;;12.53;100.00
10806;BME280;5455;53.224;6.000;2022-10-22T02:24:50;100839.50;;;12.55;100.00
10806;BME280;5455;53.224;6.000;2022-10-22T02:27:32;100841.91;;;12.56;100.00
10806;BME280;5455;53.224;6.000;2022-10-22T02:33:14;100843.56;;;12.61;100.00
10806;BME280;5455;53.224;6.000;2022-10-22T02:35:44;100846.31;;;12.61;100.00
10806;BME280;5455;53.224;6.000;2022-10-22T02:38:12;100844.38;;;12.61;100.00
10806;BME280;5455;53.224;6.000;2022-10-22T02:40:40;100840.84;;;12.64;100.00
10806;BME280;5455;53.224;6.000;2022-10-22T02:43:07;100846.84;;;12.70;100.00
10806;BME280;5455;53.224;6.000;2022-10-22T02:45:35;100842.91;;;12.71;100.00
10806;BME280;5455;53.224;6.000;2022-10-22T02:48:03;100840.19;;;12.75;100.00
10806;BME280;5455;53.224;6.000;2022-10-22T02:50:30;100844.16;;;12.74;100.00
10806;BME280;5455;53.224;6.000;2022-10-22T02:52:57;100844.63;;;12.79;100.00
10806;BME280;5455;53.224;6.000;2022-10-22T02:55:24;100848.22;;;12.83;100.00
10806;BME280;5455;53.224;6.000;2022-10-22T02:57:52;100842.72;;;12.87;100.00
10806;BME280;5455;53.224;6.000;2022-10-22T03:00:19;100849.13;;;12.91;100.00
10806;BME280;5455;53.224;6.000;2022-10-22T03:02:46;100837.25;;;12.90;100.00
10806;BME280;5455;53.224;6.000;2022-10-22T03:05:13;100842.84;;;12.94;100.00
10806;BME280;5455;53.224;6.000;2022-10-22T03:07:40;100840.88;;;12.94;100.00
10806;BME280;5455;53.224;6.000;2022-10-22T03:10:07;100835.75;;;12.96;100.00
10806;BME280;5455;53.224;6.000;2022-10-22T03:12:34;100834.59;;;12.97;100.00
10806;BME280;5455;53.224;6.000;2022-10-22T03:15:02;100838.56;;;13.00;100.00
10806;BME280;5455;53.224;6.000;2022-10-22T03:17:29;100835.34;;;12.98;100.00
10806;BME280;5455;53.224;6.000;2022-10-22T03:19:56;100837.75;;;12.99;100.00
10806;BME280;5455;53.224;6.000;2022-10-22T03:22:28;100834.59;;;12.97;100.00
10806;BME280;5455;53.224;6.000;2022-10-22T03:25:03;100840.13;;;13.01;100.00
10806;BME280;5455;53.224;6.000;2022-10-22T03:27:35;100834.66;;;13.04;100.00
10806;BME280;5455;53.224;6.000;2022-10-22T03:30:05;100845.38;;;13.06;100.00
10806;BME280;5455;53.224;6.000;2022-10-22T03:32:32;100843.75;;;13.05;100.00
10806;BME280;5455;53.224;6.000;2022-10-22T03:34:59;100841.41;;;13.07;100.00
10806;BME280;5455;53.224;6.000;2022-10-22T03:37:32;100848.22;;;13.09;100.00
10806;BME280;5455;53.224;6.000;2022-10-22T03:39:59;100845.88;;;13.11;100.00
10806;BME280;5455;53.224;6.000;2022-10-22T03:42:27;100854.16;;;13.11;100.00
10806;BME280;5455;53.224;6.000;2022-10-22T03:44:53;100854.56;;;13.13;100.00
10806;BME280;5455;53.224;6.000;2022-10-22T03:47:20;100857.78;;;13.15;100.00
10806;BME280;5455;53.224;6.000;2022-10-22T03:49:50;100851.44;;;13.15;100.00
10806;BME280;5455;53.224;6.000;2022-10-22T03:52:17;100857.00;;;13.15;100.00
10806;BME280;5455;53.224;6.000;2022-10-22T03:54:44;100847.47;;;13.12;100.00
10806;BME280;5455;53.224;6.000;2022-10-22T03:57:12;100845.06;;;13.11;100.00
10806;BME280;5455;53.224;6.000;2022-10-22T03:59:42;100855.22;;;13.03;100.00
10806;BME280;5455;53.224;6.000;2022-10-22T04:02:10;100848.84;;;12.99;100.00
10806;BME280;5455;53.224;6.000;2022-10-22T04:04:38;100853.91;;;12.94;100.00
10806;BME280;5455;53.224;6.000;2022-10-22T04:07:06;100850.28;;;12.90;100.00
10806;BME280;5455;53.224;6.000;2022-10-22T04:09:34;100856.50;;;12.83;100.00
10806;BME280;5455;53.224;6.000;2022-10-22T04:12:02;100864.03;;;12.83;100.00
10806;BME280;5455;53.224;6.000;2022-10-22T04:14:31;100864.41;;;12.81;100.00
10806;BME280;5455;53.224;6.000;2022-10-22T04:16:58;100868.31;;;12.80;100.00
10806;BME280;5455;53.224;6.000;2022-10-22T04:19:25;100869.06;;;12.77;100.00
10806;BME280;5455;53.224;6.000;2022-10-22T04:21:52;100871.41;;;12.75;100.00
10806;BME280;5455;53.224;6.000;2022-10-22T04:24:19;100878.56;;;12.76;100.00
10806;BME280;5455;53.224;6.000;2022-10-22T04:26:46;100872.16;;;12.72;100.00
10806;BME280;5455;53.224;6.000;2022-10-22T04:29:13;100878.88;;;12.71;100.00
10806;BME280;5455;53.224;6.000;2022-10-22T04:31:42;100872.91;;;12.69;100.00
10806;BME280;5455;53.224;6.000;2022-10-22T04:34:09;100880.47;;;12.72;100.00
10806;BME280;5455;53.224;6.000;2022-10-22T04:36:36;100881.63;;;12.71;100.00
10806;BME280;5455;53.224;6.000;2022-10-22T04:39:03;100888.78;;;12.72;100.00
10806;BME280;5455;53.224;6.000;2022-10-22T04:41:33;100885.66;;;12.74;100.00
10806;BME280;5455;53.224;6.000;2022-10-22T04:44:01;100890.38;;;12.73;100.00
10806;BME280;5455;53.224;6.000;2022-10-22T04:46:30;100890.38;;;12.73;100.00
10806;BME280;5455;53.224;6.000;2022-10-22T04:48:58;100887.28;;;12.78;100.00
10806;BME280;5455;53.224;6.000;2022-10-22T04:51:26;100888.44;;;12.77;100.00
10806;BME280;5455;53.224;6.000;2022-10-22T04:53:53;100880.13;;;12.77;100.00
10806;BME280;5455;53.224;6.000;2022-10-22T04:56:22;100885.31;;;12.79;100.00
10806;BME280;5455;53.224;6.000;2022-10-22T04:58:56;100887.28;;;12.78;100.00
10806;BME280;5455;53.224;6.000;2022-10-22T05:01:32;100884.50;;;12.78;100.00
10806;BME280;5455;53.224;6.000;2022-10-22T05:04:06;100881.75;;;12.78;100.00
10806;BME280;5455;53.224;6.000;2022-10-22T05:06:35;100876.16;;;12.75;100.00
10806;BME280;5455;53.224;6.000;2022-10-22T05:09:05;100888.03;;;12.75;100.00
10806;BME280;5455;53.224;6.000;2022-10-22T05:11:37;100890.78;;;12.75;100.00
10806;BME280;5455;53.224;6.000;2022-10-22T05:14:05;100889.19;;;12.74;100.00
10806;BME280;5455;53.224;6.000;2022-10-22T05:16:33;100879.31;;;12.73;100.00
10806;BME280;5455;53.224;6.000;2022-10-22T05:19:01;100885.66;;;12.74;100.00
10806;BME280;5455;53.224;6.000;2022-10-22T05:21:28;100884.03;;;12.73;100.00
10806;BME280;5455;53.224;6.000;2022-10-22T05:23:56;100878.09;;;12.70;100.00
10806;BME280;5455;53.224;6.000;2022-10-22T05:26:26;100881.28;;;12.73;100.00
10806;BME280;5455;53.224;6.000;2022-10-22T05:28:53;100877.69;;;12.72;100.00
10806;BME280;5455;53.224;6.000;2022-10-22T05:31:20;100886.41;;;12.74;100.00
10806;BME280;5455;53.224;6.000;2022-10-22T05:33:47;100878.56;;;12.76;100.00
10806;BME280;5455;53.224;6.000;2022-10-22T05:36:17;100882.91;;;12.77;100.00
10806;BME280;5455;53.224;6.000;2022-10-22T05:38:45;100891.22;;;12.77;100.00
10806;BME280;5455;53.224;6.000;2022-10-22T05:41:15;100886.84;;;12.76;100.00
10806;BME280;5455;53.224;6.000;2022-10-22T05:43:42;100887.66;;;12.77;100.00
10806;BME280;5455;53.224;6.000;2022-10-22T05:46:16;100888.81;;;12.76;100.00
10806;BME280;5455;53.224;6.000;2022-10-22T05:48:52;100891.22;;;12.77;100.00
10806;BME280;5455;53.224;6.000;2022-10-22T05:51:19;100888.88;;;12.79;100.00
10806;BME280;5455;53.224;6.000;2022-10-22T05:53:51;100893.22;;;12.80;100.00
10806;BME280;5455;53.224;6.000;2022-10-22T05:56:18;100890.91;;;12.82;100.00
10806;BME280;5455;53.224;6.000;2022-10-22T05:58:46;100890.09;;;12.82;100.00
10806;BME280;5455;53.224;6.000;2022-10-22T06:01:17;100893.69;;;12.82;100.00
10806;BME280;5455;53.224;6.000;2022-10-22T06:03:45;100891.25;;;12.81;100.00
10806;BME280;5455;53.224;6.000;2022-10-22T06:06:34;100892.94;;;12.85;100.00
10806;BME280;5455;53.224;6.000;2022-10-22T06:09:21;100892.19;;;12.88;100.00
10806;BME280;5455;53.224;6.000;2022-10-22T06:11:49;100890.22;;;12.89;100.00
10806;BME280;5455;53.224;6.000;2022-10-22T06:14:18;100905.63;;;12.90;100.00
10806;BME280;5455;53.224;6.000;2022-10-22T06:16:45;100904.47;;;12.91;100.00
10806;BME280;5455;53.224;6.000;2022-10-22T06:19:13;100902.06;;;12.89;100.00
10806;BME280;5455;53.224;6.000;2022-10-22T06:21:40;100902.88;;;12.90;100.00
10806;BME280;5455;53.224;6.000;2022-10-22T06:24:09;100909.19;;;12.90;100.00
10806;BME280;5455;53.224;6.000;2022-10-22T06:26:36;100905.28;;;12.91;100.00
10806;BME280;5455;53.224;6.000;2022-10-22T06:29:03;100906.50;;;12.94;100.00
10806;BME280;5455;53.224;6.000;2022-10-22T06:31:30;100911.28;;;12.97;100.00
10806;BME280;5455;53.224;6.000;2022-10-22T06:34:03;100913.25;;;12.96;100.00
10806;BME280;5455;53.224;6.000;2022-10-22T06:36:31;100910.88;;;12.98;100.00
10806;BME280;5455;53.224;6.000;2022-10-22T06:38:58;100922.03;;;13.02;100.00
10806;BME280;5455;53.224;6.000;2022-10-22T06:41:25;100928.41;;;13.06;100.00
10806;BME280;5455;53.224;6.000;2022-10-22T06:43:55;100925.25;;;13.07;100.00
10806;BME280;5455;53.224;6.000;2022-10-22T06:46:24;100927.31;;;13.10;100.00
10806;BME280;5455;53.224;6.000;2022-10-22T06:48:54;100936.00;;;13.09;100.00
10806;BME280;5455;53.224;6.000;2022-10-22T06:51:22;100941.16;;;13.10;100.00
10806;BME280;5455;53.224;6.000;2022-10-22T06:53:49;100941.59;;;13.12;100.00
10806;BME280;5455;53.224;6.000;2022-10-22T06:56:18;100944.78;;;13.14;100.00
10806;BME280;5455;53.224;6.000;2022-10-22T06:58:50;100959.47;;;13.18;100.00
10806;BME280;5455;53.224;6.000;2022-10-22T07:01:20;100963.06;;;13.22;100.00
10806;BME280;5455;53.224;6.000;2022-10-22T07:03:49;100953.59;;;13.23;100.00
10806;BME280;5455;53.224;6.000;2022-10-22T07:06:17;100962.31;;;13.25;100.00
10806;BME280;5455;53.224;6.000;2022-10-22T07:08:44;100967.94;;;13.29;100.00
10806;BME280;5455;53.224;6.000;2022-10-22T07:11:13;100964.00;;;13.30;100.00
10806;BME280;5455;53.224;6.000;2022-10-22T07:13:41;100968.38;;;13.35;100.00
10806;BME280;5455;53.224;6.000;2022-10-22T07:16:08;100966.09;;;13.40;100.00
10806;BME280;5455;53.224;6.000;2022-10-22T07:18:37;100962.16;;;13.41;100.00
10806;BME280;5455;53.224;6.000;2022-10-22T07:21:05;100973.66;;;13.43;100.00
10806;BME280;5455;53.224;6.000;2022-10-22T07:23:32;100972.13;;;13.46;100.00
10806;BME280;5455;53.224;6.000;2022-10-22T07:25:59;100984.78;;;13.47;100.00
10806;BME280;5455;53.224;6.000;2022-10-22T07:28:29;100985.59;;;13.47;100.00
10806;BME280;5455;53.224;6.000;2022-10-22T07:30:56;100980.84;;;13.48;100.00
10806;BME280;5455;53.224;6.000;2022-10-22T07:33:23;100980.84;;;13.48;100.00
10806;BME280;5455;53.224;6.000;2022-10-22T07:35:56;100992.72;;;13.48;100.00
10806;BME280;5455;53.224;6.000;2022-10-22T07:38:23;100995.50;;;13.48;100.00
10806;BME280;5455;53.224;6.000;2022-10-22T07:40:50;100984.84;;;13.50;100.00
10806;BME280;5455;53.224;6.000;2022-10-22T07:43:17;101002.25;;;13.51;100.00
10806;BME280;5455;53.224;6.000;2022-10-22T07:45:44;100997.53;;;13.51;100.00
10806;BME280;5455;53.224;6.000;2022-10-22T07:48:11;101001.47;;;13.50;100.00
10806;BME280;5455;53.224;6.000;2022-10-22T07:50:38;101007.81;;;13.51;100.00
10806;BME280;5455;53.224;6.000;2022-10-22T07:53:05;101011.38;;;13.51;100.00
10806;BME280;5455;53.224;6.000;2022-10-22T07:55:33;101010.97;;;13.53;100.00
10806;BME280;5455;53.224;6.000;2022-10-22T07:58:00;101009.81;;;13.54;100.00
10806;BME280;5455;53.224;6.000;2022-10-22T08:00:27;101010.66;;;13.58;100.00
10806;BME280;5455;53.224;6.000;2022-10-22T08:02:54;101011.50;;;13.62;100.00
10806;BME280;5455;53.224;6.000;2022-10-22T08:05:21;101015.53;;;13.68;100.00
10806;BME280;5455;53.224;6.000;2022-10-22T08:07:48;101020.75;;;13.73;100.00
10806;BME280;5455;53.224;6.000;2022-10-22T08:10:15;101020.81;;;13.76;100.00
10806;BME280;5455;53.224;6.000;2022-10-22T08:12:42;101025.22;;;13.81;100.00
10806;BME280;5455;53.224;6.000;2022-10-22T08:15:09;101026.06;;;13.85;100.00
10806;BME280;5455;53.224;6.000;2022-10-22T08:17:36;101029.31;;;13.91;100.00
10806;BME280;5455;53.224;6.000;2022-10-22T08:20:03;101037.75;;;14.01;100.00
10806;BME280;5455;53.224;6.000;2022-10-22T08:22:31;101038.25;;;14.10;100.00
10806;BME280;5455;53.224;6.000;2022-10-22T08:24:57;101030.84;;;14.21;100.00
10806;BME280;5455;53.224;6.000;2022-10-22T08:27:26;101038.13;;;14.33;100.00
10806;BME280;5455;53.224;6.000;2022-10-22T08:29:53;101039.88;;;14.48;100.00
10806;BME280;5455;53.224;6.000;2022-10-22T08:32:20;101044.06;;;14.68;100.00
10806;BME280;5455;53.224;6.000;2022-10-22T08:34:47;101043.44;;;14.85;100.00
10806;BME280;5455;53.224;6.000;2022-10-22T08:37:16;101047.13;;;15.00;100.00
10806;BME280;5455;53.224;6.000;2022-10-22T08:39:43;101045.25;;;15.15;100.00
10806;BME280;5455;53.224;6.000;2022-10-22T08:50:11;101047.69;;;15.20;100.00
10806;BME280;5455;53.224;6.000;2022-10-22T08:52:43;101053.72;;;15.29;100.00
10806;BME280;5455;53.224;6.000;2022-10-22T08:55:14;101061.75;;;15.41;100.00
10806;BME280;5455;53.224;6.000;2022-10-22T08:58:00;101058.66;;;15.53;100.00
10806;BME280;5455;53.224;6.000;2022-10-22T09:00:58;101068.69;;;15.65;100.00
10806;BME280;5455;53.224;6.000;2022-10-22T09:03:44;101071.03;;;15.63;100.00
10806;BME280;5455;53.224;6.000;2022-10-22T09:06:26;101071.41;;;15.58;100.00
10806;BME280;5455;53.224;6.000;2022-10-22T09:08:56;101070.69;;;15.68;100.00
10806;BME280;5455;53.224;6.000;2022-10-22T09:14:49;101074.34;;;15.86;100.00
10806;BME280;5455;53.224;6.000;2022-10-22T09:17:26;101079.53;;;15.91;100.00
10806;BME280;5455;53.224;6.000;2022-10-22T09:20:15;101081.94;;;15.96;100.00
10806;BME280;5455;53.224;6.000;2022-10-22T09:23:32;101085.13;;;15.94;100.00
10806;BME280;5455;53.224;6.000;2022-10-22T09:26:24;101073.59;;;15.96;100.00
10806;BME280;5455;53.224;6.000;2022-10-22T09:28:53;101092.25;;;15.95;100.00
10806;BME280;5455;53.224;6.000;2022-10-22T09:31:21;101093.50;;;15.98;100.00
10806;BME280;5455;53.224;6.000;2022-10-22T09:33:50;101074.38;;;15.93;100.00
10806;BME280;5455;53.224;6.000;2022-10-22T09:36:21;101086.69;;;15.88;100.00
10806;BME280;5455;53.224;6.000;2022-10-22T09:38:51;101096.59;;;15.86;100.00
10806;BME280;5455;53.224;6.000;2022-10-22T09:41:23;101088.63;;;15.84;100.00
10806;BME280;5455;53.224;6.000;2022-10-22T09:43:51;101085.06;;;15.84;100.00
10806;BME280;5455;53.224;6.000;2022-10-22T09:46:21;101086.22;;;15.79;100.00
10806;BME280;5455;53.224;6.000;2022-10-22T09:49:09;101095.78;;;15.82;100.00
10806;BME280;5455;53.224;6.000;2022-10-22T09:51:52;101087.56;;;16.03;100.00
10806;BME280;5455;53.224;6.000;2022-10-22T09:59:37;101107.59;;;16.44;100.00
10806;BME280;5455;53.224;6.000;2022-10-22T10:02:15;101107.59;;;16.47;100.00
10806;BME280;5455;53.224;6.000;2022-10-22T10:05:03;101113.56;;;16.42;100.00
10806;BME280;5455;53.224;6.000;2022-10-22T10:07:32;101112.34;;;16.36;100.00
10806;BME280;5455;53.224;6.000;2022-10-22T10:10:00;101125.81;;;16.34;100.00
10806;BME280;5455;53.224;6.000;2022-10-22T10:12:53;101118.31;;;16.38;100.00
10806;BME280;5455;53.224;6.000;2022-10-22T10:15:29;101129.41;;;16.35;100.00
10806;BME280;5455;53.224;6.000;2022-10-22T10:23:47;101141.63;;;16.16;100.00
10806;BME280;5455;53.224;6.000;2022-10-22T10:27:12;101150.31;;;16.01;100.00
10806;BME280;5455;53.224;6.000;2022-10-22T10:32:50;101145.03;;;15.81;100.00
10806;BME280;5455;53.224;6.000;2022-10-22T10:35:27;101143.88;;;15.86;100.00
10806;BME280;5455;53.224;6.000;2022-10-22T10:40:41;101153.13;;;16.04;100.00
10806;BME280;5455;53.224;6.000;2022-10-22T10:43:33;101152.00;;;16.19;100.00
10806;BME280;5455;53.224;6.000;2022-10-22T10:49:16;101159.59;;;16.26;100.00
10806;BME280;5455;53.224;6.000;2022-10-22T10:55:21;101165.00;;;15.97;100.00
10806;BME280;5455;53.224;6.000;2022-10-22T11:00:20;101177.50;;;15.67;100.00
10806;BME280;5455;53.224;6.000;2022-10-22T11:06:08;101173.31;;;15.43;100.00
10806;BME280;5455;53.224;6.000;2022-10-22T11:08:36;101182.41;;;15.40;100.00
10806;BME280;5455;53.224;6.000;2022-10-22T11:11:15;101183.94;;;15.34;100.00
10806;BME280;5455;53.224;6.000;2022-10-22T11:16:22;101191.59;;;15.44;100.00
10806;BME280;5455;53.224;6.000;2022-10-22T11:18:59;101197.09;;;15.40;100.00
10806;BME280;5455;53.224;6.000;2022-10-22T11:21:39;101191.72;;;15.58;100.00
10806;BME280;5455;53.224;6.000;2022-10-22T11:26:42;101203.19;;;16.01;100.00
10806;BME280;5455;53.224;6.000;2022-10-22T11:29:16;101199.31;;;16.23;100.00
10806;BME280;5455;53.224;6.000;2022-10-22T11:31:47;101194.59;;;16.30;100.00
10806;BME280;5455;53.224;6.000;2022-10-22T11:34:27;101200.59;;;16.36;100.00
10806;BME280;5455;53.224;6.000;2022-10-22T11:37:01;101202.56;;;16.35;100.00
10806;BME280;5455;53.224;6.000;2022-10-22T11:40:00;101206.97;;;16.36;100.00
10806;BME280;5455;53.224;6.000;2022-10-22T11:42:33;101212.50;;;16.33;100.00
10806;BME280;5455;53.224;6.000;2022-10-22T11:45:22;101201.22;;;16.08;100.00
10806;BME280;5455;53.224;6.000;2022-10-22T11:50:43;101216.53;;;15.81;100.00
10806;BME280;5455;53.224;6.000;2022-10-22T12:08:31;101218.34;;;16.10;100.00
10806;BME280;5455;53.224;6.000;2022-10-22T12:11:02;101214.84;;;16.24;100.00
10806;BME280;5455;53.224;6.000;2022-10-22T12:13:54;101215.25;;;16.29;100.00
10806;BME280;5455;53.224;6.000;2022-10-22T12:16:27;101207.38;;;16.42;100.00
10806;BME280;5455;53.224;6.000;2022-10-22T12:19:17;101215.84;;;16.60;100.00
10806;BME280;5455;53.224;6.000;2022-10-22T12:21:56;101218.72;;;16.81;100.00
10806;BME280;5455;53.224;6.000;2022-10-22T12:24:29;101217.19;;;17.01;100.00
10806;BME280;5455;53.224;6.000;2022-10-22T12:26:58;101206.06;;;17.08;100.00
10806;BME280;5455;53.224;6.000;2022-10-22T12:29:24;101207.28;;;17.18;100.00
10806;BME280;5455;53.224;6.000;2022-10-22T12:31:53;101216.88;;;17.24;100.00
10806;BME280;5455;53.224;6.000;2022-10-22T12:34:22;101221.22;;;17.14;100.00
10806;BME280;5455;53.224;6.000;2022-10-22T12:36:51;101220.44;;;17.17;100.00
10806;BME280;5455;53.224;6.000;2022-10-22T12:39:25;101218.81;;;17.16;100.00
10806;BME280;5455;53.224;6.000;2022-10-22T12:41:53;101224.00;;;17.14;100.00
10806;BME280;5455;53.224;6.000;2022-10-22T12:44:20;101219.63;;;17.20;100.00
10806;BME280;5455;53.224;6.000;2022-10-22T12:46:48;101218.44;;;17.28;100.00
10806;BME280;5455;53.224;6.000;2022-10-22T12:49:34;101220.44;;;17.17;100.00
10806;BME280;5455;53.224;6.000;2022-10-22T12:52:04;101222.81;;;17.15;100.00
10806;BME280;5455;53.224;6.000;2022-10-22T12:54:36;101229.19;;;17.12;100.00
10806;BME280;5455;53.224;6.000;2022-10-22T12:57:05;101224.41;;;17.09;100.00
10806;BME280;5455;53.224;6.000;2022-10-22T12:59:37;101227.19;;;17.16;100.00
10806;BME280;5455;53.224;6.000;2022-10-22T13:02:18;101219.66;;;17.38;100.00
10806;BME280;5455;53.224;6.000;2022-10-22T13:05:23;101222.44;;;17.48;100.00
10806;BME280;5455;53.224;6.000;2022-10-22T13:08:00;101232.47;;;17.56;100.00
10806;BME280;5455;53.224;6.000;2022-10-22T13:10:37;101231.66;;;17.70;100.00
10806;BME280;5455;53.224;6.000;2022-10-22T13:13:04;101230.09;;;17.69;100.00
10806;BME280;5455;53.224;6.000;2022-10-22T13:15:37;101224.88;;;17.82;100.00
10806;BME280;5455;53.224;6.000;2022-10-22T13:18:20;101227.28;;;17.94;100.00
10806;BME280;5455;53.224;6.000;2022-10-22T13:20:59;101229.28;;;17.90;100.00
10806;BME280;5455;53.224;6.000;2022-10-22T13:23:29;101230.50;;;17.75;100.00
10806;BME280;5455;53.224;6.000;2022-10-22T13:26:00;101231.66;;;17.56;100.00
10806;BME280;5455;53.224;6.000;2022-10-22T13:28:29;101232.03;;;17.44;100.00
10806;BME280;5455;53.224;6.000;2022-10-22T13:31:13;101230.03;;;17.48;100.00
10806;BME280;5455;53.224;6.000;2022-10-22T13:33:43;101238.81;;;17.50;100.00
10806;BME280;5455;53.224;6.000;2022-10-22T13:36:13;101241.22;;;17.55;100.00
10806;BME280;5455;53.224;6.000;2022-10-22T13:38:44;101244.00;;;17.73;100.00
10806;BME280;5455;53.224;6.000;2022-10-22T13:41:25;101240.44;;;17.69;100.00
10806;BME280;5455;53.224;6.000;2022-10-22T13:43:53;101245.63;;;17.81;100.00
10806;BME280;5455;53.224;6.000;2022-10-22T13:46:21;101252.41;;;17.80;100.00
10806;BME280;5455;53.224;6.000;2022-10-22T13:48:51;101250.78;;;17.65;100.00
10806;BME280;5455;53.224;6.000;2022-10-22T13:51:21;101243.56;;;17.46;100.00
10806;BME280;5455;53.224;6.000;2022-10-22T13:53:50;101249.56;;;17.48;100.00
10806;BME280;5455;53.224;6.000;2022-10-22T13:56:19;101249.56;;;17.44;100.00
10806;BME280;5455;53.224;6.000;2022-10-22T13:58:46;101255.13;;;17.41;100.00
10806;BME280;5455;53.224;6.000;2022-10-22T14:01:23;101267.44;;;17.33;100.00
10806;BME280;5455;53.224;6.000;2022-10-22T14:03:52;101269.81;;;17.31;100.00
10806;BME280;5455;53.224;6.000;2022-10-22T14:06:21;101270.19;;;17.15;100.00
10806;BME280;5455;53.224;6.000;2022-10-22T14:08:52;101268.56;;;17.00;100.00
10806;BME280;5455;53.224;6.000;2022-10-22T14:11:20;101267.34;;;17.01;100.00
10806;BME280;5455;53.224;6.000;2022-10-22T14:13:47;101266.59;;;17.11;100.00
10806;BME280;5455;53.224;6.000;2022-10-22T14:16:19;101260.25;;;17.28;100.00
10806;BME280;5455;53.224;6.000;2022-10-22T14:18:47;101268.63;;;17.32;100.00
10806;BME280;5455;53.224;6.000;2022-10-22T14:21:15;101269.44;;;17.36;100.00
10806;BME280;5455;53.224;6.000;2022-10-22T14:23:44;101270.66;;;17.45;100.00
10806;BME280;5455;53.224;6.000;2022-10-22T14:26:26;101281.41;;;17.36;100.00
10806;BME280;5455;53.224;6.000;2022-10-22T14:28:56;101284.13;;;17.22;100.00
10806;BME280;5455;53.224;6.000;2022-10-22T14:31:37;101284.03;;;16.90;100.00
10806;BME280;5455;53.224;6.000;2022-10-22T14:34:10;101289.91;;;16.75;100.00
10806;BME280;5455;53.224;6.000;2022-10-22T14:36:38;101287.88;;;16.65;100.00
10806;BME280;5455;53.224;6.000;2022-10-22T14:39:05;101289.41;;;16.59;100.00